This is the latest recevied weather packets stored in our database for station/object HS1WDC-1. If no packets are shown the sender has not sent any weather packets the latest 10 day(s).
| Time | Temp. | Humidity | Pressure | Rain* | Wind** | Luminosity | Snow |
|---|---|---|---|---|---|---|---|
| 1777520618 | 38.89° C | 41% | 1010 hPa | - | - | 0 W/m² | - |
| 1777519694 | 38.33° C | 42% | 1010 hPa | - | - | 0 W/m² | - |
| 1777518769 | 38.33° C | 43% | 1010 hPa | - | - | 0 W/m² | - |
| 1777517843 | 38.33° C | 43% | 1011 hPa | - | - | 0 W/m² | - |
| 1777516919 | 37.78° C | 44% | 1011 hPa | - | - | 0 W/m² | - |
| 1777515994 | 37.22° C | 45% | 1011 hPa | - | - | 0 W/m² | - |
| 1777515070 | 37.22° C | 45% | 1011 hPa | - | - | 0 W/m² | - |
| 1777514145 | 36.67° C | 47% | 1011 hPa | - | - | 0 W/m² | - |
| 1777513220 | 36.11° C | 47% | 1011 hPa | - | - | 0 W/m² | - |
| 1777512296 | 36.11° C | 48% | 1011 hPa | - | - | 0 W/m² | - |
| 1777511371 | 36.11° C | 49% | 1010 hPa | - | - | 0 W/m² | - |
| 1777510446 | 35.56° C | 53% | 1010 hPa | - | - | 0 W/m² | - |
| 1777509521 | 35.56° C | 54% | 1010 hPa | - | - | 0 W/m² | - |
| 1777508596 | 34.44° C | 59% | 1010 hPa | - | - | 0 W/m² | - |
| 1777507670 | 34.44° C | 58% | 1010 hPa | - | - | 0 W/m² | - |
| 1777506744 | 34.44° C | 59% | 1009 hPa | - | - | 0 W/m² | - |
| 1777505820 | 35° C | 58% | 1009 hPa | - | - | 0 W/m² | - |
| 1777504895 | 34.44° C | 60% | 1008 hPa | - | - | 0 W/m² | - |
| 1777503971 | 34.44° C | 59% | 1008 hPa | - | - | 0 W/m² | - |
| 1777503047 | 35.56° C | 56% | 1008 hPa | - | - | 0 W/m² | - |
| 1777502122 | 35.56° C | 55% | 1008 hPa | - | - | 0 W/m² | - |
| 1777501198 | 34.44° C | 58% | 1008 hPa | - | - | 0 W/m² | - |
| 1777500274 | 35.56° C | 56% | 1008 hPa | - | - | 0 W/m² | - |
| 1777499349 | 35.56° C | 55% | 1007 hPa | - | - | 0 W/m² | - |
| 1777498425 | 34.44° C | 58% | 1007 hPa | - | - | 0 W/m² | - |
* Rain since midnight (hover to see other rain measurements)
** Current wind speed in m/s (hover to see current wind gust speed)